Time;durP1;ratioP1;P1;durP2;ratioP2;P2;SDS_P1;SDS_P2;PMS_P1;PMS_P2;Temp;Humidity;BMP_temperature;BMP_pressure;BME280_temperature;BME280_humidity;BME280_pressure;Samples;Min_cycle;Max_cycle;Signal;HPM_P1;HPM_P2
2023/06/15 00:01:50;;;;;;;;;;;;;;;-144.99;69.00;52207.59;4719554;28;9999873;-66
2023/06/15 00:04:17;;;;;;;;;;;;;;;-144.99;69.16;52217.78;5080175;28;20432;-67
2023/06/15 00:06:43;;;;;;;;;;;;;;;-144.99;69.08;52211.66;5072269;28;20656;-67
2023/06/15 00:09:12;;;;;;;;;;;;;;;-144.99;69.29;52223.88;5077520;28;20446;-68
2023/06/15 00:11:39;;;;;;;;;;;;;;;-144.99;69.02;52183.13;5085743;28;19943;-67
2023/06/15 00:14:06;;;;;;;;;;;;;;;-144.99;68.07;52179.06;5082710;28;20493;-68
2023/06/15 00:16:32;;;;;;;;;;;;;;;-144.99;69.15;52183.13;5092794;28;20006;-68
2023/06/15 00:19:01;;;;;;;;;;;;;;;-144.99;69.50;52183.13;5088952;28;19954;-68
2023/06/15 00:21:40;;;;;;;;;;;;;;;-144.99;69.64;52217.78;5091275;28;19938;-69
2023/06/15 00:24:07;;;;;;;;;;;;;;;-144.99;69.59;52215.75;5083718;28;19974;-68
2023/06/15 00:27:01;;;;;;;;;;;;;;;-144.99;69.56;52191.28;5092887;28;19973;-68
2023/06/15 00:29:29;;;;;;;;;;;;;;;-144.99;69.45;52162.75;5088110;28;19989;-68
2023/06/15 00:31:56;;;;;;;;;;;;;;;-144.99;69.77;52166.81;5087984;28;20023;-68
2023/06/15 00:34:22;;;;;;;;;;;;;;;-144.99;69.84;52195.34;5077155;28;19947;-70
2023/06/15 00:36:49;;;;;;;;;;;;;;;-144.99;70.03;52187.19;5081287;28;20482;-69
2023/06/15 00:39:15;;;;;;;;;;;;;;;-144.99;70.18;52170.91;5076763;28;19962;-68
2023/06/15 00:41:45;;;;;;;;;;;;;;;-144.99;70.14;52209.63;5084110;28;19979;-68
2023/06/15 00:44:11;;;;;;;;;;;;;;;-144.99;70.25;52193.31;5081042;28;19938;-68
2023/06/15 00:46:40;;;;;;;;;;;;;;;-144.99;70.09;52199.44;5083642;28;19940;-69
2023/06/15 00:49:07;;;;;;;;;;;;;;;-144.99;70.32;52227.97;5083924;28;19958;-69
2023/06/15 00:51:35;;;;;;;;;;;;;;;-144.99;70.34;52195.34;5076814;28;20039;-69
2023/06/15 00:54:03;;;;;;;;;;;;;;;-144.99;70.50;52211.66;5080177;28;19954;-69
2023/06/15 00:56:30;;;;;;;;;;;;;;;-144.99;70.74;52177.00;5074773;28;20232;-70
2023/06/15 00:58:57;;;;;;;;;;;;;;;-144.99;69.96;52217.78;5076006;28;19957;-70
2023/06/15 01:01:23;;;;;;;;;;;;;;;-144.99;70.67;52199.44;5078724;28;20333;-69
2023/06/15 01:03:54;;;;;;;;;;;;;;;-144.99;70.55;52166.81;5074458;28;19945;-70
2023/06/15 01:06:41;;;;;;;;;;;;;;;-144.99;70.57;52154.59;5067235;28;19938;-70
2023/06/15 01:09:09;;;;;;;;;;;;;;;-144.99;70.71;52207.59;5064245;28;19961;-71
2023/06/15 01:11:36;;;;;;;;;;;;;;;-144.99;70.77;52158.66;5065707;28;19962;-70
2023/06/15 01:14:04;;;;;;;;;;;;;;;-144.99;70.69;52154.59;5067303;28;20559;-71
2023/06/15 01:16:55;;;;;;;;;;;;;;;-144.99;70.30;52174.97;5065371;28;20069;-70
2023/06/15 01:19:34;;;;;;;;;;;;;;;-144.99;70.78;52172.94;5077720;28;20178;-71
2023/06/15 01:22:07;;;;;;;;;;;;;;;-144.99;70.70;52162.75;5079724;28;20434;-71
2023/06/15 01:24:37;;;;;;;;;;;;;;;-144.99;70.67;52166.81;5071743;28;20422;-71
2023/06/15 01:27:05;;;;;;;;;;;;;;;-144.99;70.21;52154.59;5071416;28;19983;-71
2023/06/15 01:29:34;;;;;;;;;;;;;;;-144.99;71.14;52156.63;5069492;28;19966;-69
2023/06/15 01:32:01;;;;;;;;;;;;;;;-144.99;70.44;52146.44;5076998;28;20017;-70
2023/06/15 01:34:28;;;;;;;;;;;;;;;-144.99;71.19;52191.28;5071123;28;19940;-70
2023/06/15 01:36:55;;;;;;;;;;;;;;;-144.99;71.33;52223.88;5081780;28;19955;-71
2023/06/15 01:39:21;;;;;;;;;;;;;;;-144.99;70.31;52207.59;5073267;28;19967;-66
2023/06/15 01:41:48;;;;;;;;;;;;;;;-144.99;71.56;52225.94;5074413;28;19940;-68
2023/06/15 01:44:16;;;;;;;;;;;;;;;-144.99;71.81;52207.59;5075161;28;19935;-66
2023/06/15 01:46:43;;;;;;;;;;;;;;;-144.99;71.88;52179.06;5075212;28;20056;-66
2023/06/15 01:49:10;;;;;;;;;;;;;;;-144.99;72.14;52177.00;5077463;28;19959;-68
2023/06/15 01:51:36;;;;;;;;;;;;;;;-144.99;71.86;52191.28;5072154;28;20459;-63
2023/06/15 01:54:03;;;;;;;;;;;;;;;-144.99;72.34;52227.97;5083131;28;19945;-63
2023/06/15 01:56:42;;;;;;;;;;;;;;;-144.99;72.49;52177.00;5080286;28;19940;-64
2023/06/15 01:59:09;;;;;;;;;;;;;;;-144.99;72.77;52203.50;5063381;28;20001;-65
2023/06/15 02:01:37;;;;;;;;;;;;;;;-144.99;72.88;52203.50;5072389;28;19953;-64
2023/06/15 02:04:04;;;;;;;;;;;;;;;-144.99;72.96;52207.59;5076051;28;19940;-63
2023/06/15 02:06:33;;;;;;;;;;;;;;;-144.99;73.07;52195.34;5084126;28;20432;-62
2023/06/15 02:09:00;;;;;;;;;;;;;;;-144.99;73.06;52232.03;5077634;28;20154;-64
2023/06/15 02:11:27;;;;;;;;;;;;;;;-144.99;73.19;52215.75;5079533;28;19963;-66
2023/06/15 02:13:54;;;;;;;;;;;;;;;-144.99;73.33;52203.50;5076929;28;20061;-65
2023/06/15 02:16:20;;;;;;;;;;;;;;;-144.99;73.71;52238.16;5092256;28;20050;-65
2023/06/15 02:18:48;;;;;;;;;;;;;;;-144.99;73.73;52174.97;5069130;28;19943;-65
2023/06/15 02:21:15;;;;;;;;;;;;;;;-144.99;74.06;52223.88;5074576;28;19951;-69
2023/06/15 02:23:42;;;;;;;;;;;;;;;-144.99;74.14;52158.66;5079007;28;20500;-68
2023/06/15 02:26:11;;;;;;;;;;;;;;;-144.99;74.29;52191.28;5070387;28;19940;-69
2023/06/15 02:28:38;;;;;;;;;;;;;;;-144.99;74.43;52191.28;5063206;28;20901;-67
2023/06/15 02:31:06;;;;;;;;;;;;;;;-144.99;74.67;52181.09;5066357;28;19959;-65
2023/06/15 02:33:32;;;;;;;;;;;;;;;-144.99;74.43;52219.81;5066312;28;20442;-67
2023/06/15 02:36:30;;;;;;;;;;;;;;;-144.99;74.66;52207.59;5076019;28;20282;-68
2023/06/15 02:39:21;;;;;;;;;;;;;;;-144.99;74.87;52195.34;5072766;28;20002;-67
2023/06/15 02:41:49;;;;;;;;;;;;;;;-144.99;73.25;52183.13;5079462;28;20120;-66
2023/06/15 02:44:16;;;;;;;;;;;;;;;-144.99;72.55;52195.34;5067399;28;20345;-67
2023/06/15 02:46:51;;;;;;;;;;;;;;;-144.99;72.69;52195.34;5069745;28;19944;-66
2023/06/15 02:49:19;;;;;;;;;;;;;;;-144.99;72.78;52240.19;5075589;28;19958;-66
2023/06/15 02:51:45;;;;;;;;;;;;;;;-144.99;72.61;52195.34;5067160;22;19971;-65
2023/06/15 02:54:12;;;;;;;;;;;;;;;-144.99;72.61;52201.47;5036448;28;19939;-66
2023/06/15 02:56:41;;;;;;;;;;;;;;;-144.99;72.76;52179.06;5040084;28;19994;-65
2023/06/15 02:59:09;;;;;;;;;;;;;;;-144.99;72.58;52179.06;5035581;28;20061;-64
2023/06/15 03:01:52;;;;;;;;;;;;;;;-144.99;72.92;52187.19;5043430;28;19957;-65
2023/06/15 03:04:23;;;;;;;;;;;;;;;-144.99;73.07;52166.81;5040065;28;20020;-66
2023/06/15 03:06:50;;;;;;;;;;;;;;;-144.99;73.06;52177.00;5047135;28;19949;-66
2023/06/15 03:09:17;;;;;;;;;;;;;;;-144.99;73.13;52179.06;5034073;28;19960;-64
2023/06/15 03:11:44;;;;;;;;;;;;;;;-144.99;73.15;52130.13;5030506;28;20055;-65
2023/06/15 03:14:12;;;;;;;;;;;;;;;-144.99;73.42;52195.34;5044144;28;20401;-65
2023/06/15 03:16:41;;;;;;;;;;;;;;;-144.99;73.50;52203.50;5033320;28;19946;-65
2023/06/15 03:19:07;;;;;;;;;;;;;;;-144.99;73.54;52166.81;5029347;28;20091;-64
2023/06/15 03:21:43;;;;;;;;;;;;;;;-144.99;73.62;52195.34;5031038;28;19939;-69
2023/06/15 03:24:10;;;;;;;;;;;;;;;-144.99;73.61;52154.59;5037559;28;20042;-71
2023/06/15 03:26:41;;;;;;;;;;;;;;;-144.99;74.67;52223.88;5034797;28;19944;-69
2023/06/15 03:29:08;;;;;;;;;;;;;;;-144.99;75.63;52227.97;5031402;28;20002;-68
2023/06/15 03:32:03;;;;;;;;;;;;;;;-144.99;75.83;52148.47;5036945;28;19935;-69
2023/06/15 03:34:31;;;;;;;;;;;;;;;-144.99;76.11;52187.19;5043497;28;19940;-68
2023/06/15 03:36:58;;;;;;;;;;;;;;;-144.99;76.31;52209.63;5042650;28;20015;-67
2023/06/15 03:39:24;;;;;;;;;;;;;;;-144.99;75.71;52166.81;5042859;28;19955;-69
2023/06/15 03:41:51;;;;;;;;;;;;;;;-144.99;75.62;52199.44;5042525;28;20437;-69
2023/06/15 03:44:18;;;;;;;;;;;;;;;-144.99;76.24;52174.97;5051560;28;19942;-69
2023/06/15 03:46:48;;;;;;;;;;;;;;;-144.99;76.64;52191.28;5031916;28;19941;-69
2023/06/15 03:49:14;;;;;;;;;;;;;;;-144.99;76.86;52199.44;5043896;28;19965;-68
2023/06/15 03:51:42;;;;;;;;;;;;;;;-144.99;76.95;52187.19;5040569;28;20413;-68
2023/06/15 03:54:09;;;;;;;;;;;;;;;-144.99;76.18;52195.34;5041656;28;20296;-69
2023/06/15 03:56:54;;;;;;;;;;;;;;;-144.99;76.89;52146.44;5036759;28;20086;-68
2023/06/15 03:59:21;;;;;;;;;;;;;;;-144.99;76.82;52179.06;5040249;28;19961;-68
2023/06/15 04:01:48;;;;;;;;;;;;;;;-144.99;77.14;52189.25;5037151;28;19952;-69
2023/06/15 04:04:15;;;;;;;;;;;;;;;-144.99;77.25;52166.81;5035119;28;20574;-68
2023/06/15 04:06:47;;;;;;;;;;;;;;;-144.99;77.33;52146.44;5042628;28;20007;-68
2023/06/15 04:09:14;;;;;;;;;;;;;;;-144.99;77.53;52174.97;5040768;28;20099;-70
2023/06/15 04:11:41;;;;;;;;;;;;;;;-144.99;77.69;52150.53;5044315;28;19957;-68
2023/06/15 04:14:08;;;;;;;;;;;;;;;-144.99;77.64;52195.34;5055061;28;19944;-68
2023/06/15 04:16:50;;;;;;;;;;;;;;;-144.99;77.54;52146.44;5053722;28;20033;-67
2023/06/15 04:19:16;;;;;;;;;;;;;;;-144.99;77.31;52187.19;5044368;28;20432;-68
2023/06/15 04:21:43;;;;;;;;;;;;;;;-144.99;76.29;52166.81;5041717;28;19943;-72
2023/06/15 04:24:11;;;;;;;;;;;;;;;-144.99;75.83;52121.97;5040729;28;19966;-60
2023/06/15 04:26:38;;;;;;;;;;;;;;;-144.99;76.11;52121.97;5038226;28;19945;-66
2023/06/15 04:29:45;;;;;;;;;;;;;;;-144.99;76.36;52158.66;5045493;28;20025;-65
2023/06/15 04:32:11;;;;;;;;;;;;;;;-144.99;76.21;52187.19;5046521;28;19968;-65
2023/06/15 04:34:39;;;;;;;;;;;;;;;-144.99;76.34;52183.13;5038967;28;19944;-63
2023/06/15 04:37:06;;;;;;;;;;;;;;;-144.99;76.18;52134.22;5039405;28;20307;-62
2023/06/15 04:39:34;;;;;;;;;;;;;;;-144.99;76.07;52121.97;5045817;28;20034;-62
2023/06/15 04:42:03;;;;;;;;;;;;;;;-144.99;75.88;52181.09;5044324;28;20333;-67
2023/06/15 04:44:29;;;;;;;;;;;;;;;-144.99;75.87;52187.19;5038526;28;19952;-62
2023/06/15 04:46:56;;;;;;;;;;;;;;;-144.99;75.75;52140.31;5031821;28;19941;-61
2023/06/15 04:49:23;;;;;;;;;;;;;;;-144.99;75.55;52126.06;5035592;28;19971;-62
2023/06/15 04:51:50;;;;;;;;;;;;;;;-144.99;75.63;52156.63;5045232;28;20052;-62
2023/06/15 04:54:16;;;;;;;;;;;;;;;-144.99;75.44;52138.28;5046287;28;19948;-62
2023/06/15 04:56:44;;;;;;;;;;;;;;;-144.99;75.40;52166.81;5039571;28;19967;-62
2023/06/15 04:59:11;;;;;;;;;;;;;;;-144.99;75.26;52146.44;5040686;28;19929;-61
2023/06/15 05:01:47;;;;;;;;;;;;;;;-144.99;75.34;52207.59;5040204;28;19949;-61
2023/06/15 05:04:13;;;;;;;;;;;;;;;-144.99;75.25;52162.75;5039998;28;19925;-61
2023/06/15 05:06:40;;;;;;;;;;;;;;;-144.99;75.25;52091.41;5045910;28;19940;-61
2023/06/15 05:09:07;;;;;;;;;;;;;;;-144.99;75.37;52138.28;5043112;28;19955;-60
2023/06/15 05:11:33;;;;;;;;;;;;;;;-144.99;75.27;52146.44;5043934;28;19958;-61
2023/06/15 05:14:01;;;;;;;;;;;;;;;-144.99;75.51;52162.75;5040996;28;20085;-61
2023/06/15 05:16:28;;;;;;;;;;;;;;;-144.99;74.94;52154.59;5044363;28;20526;-61
2023/06/15 05:18:54;;;;;;;;;;;;;;;-144.99;74.92;52134.22;5046455;28;20441;-62
2023/06/15 05:21:21;;;;;;;;;;;;;;;-144.99;74.63;52109.75;5043399;28;19945;-62
2023/06/15 05:23:48;;;;;;;;;;;;;;;-144.99;74.18;52128.09;5043592;28;19991;-61
2023/06/15 05:26:20;;;;;;;;;;;;;;;-144.99;73.59;52117.91;5035749;28;20450;-62
2023/06/15 05:28:47;;;;;;;;;;;;;;;-144.99;74.14;52130.13;5041325;28;20036;-61
2023/06/15 05:31:15;;;;;;;;;;;;;;;-144.99;74.44;52130.13;5041956;28;19968;-63
2023/06/15 05:33:42;;;;;;;;;;;;;;;-144.99;74.13;52162.75;5042949;28;20426;-63
2023/06/15 05:36:08;;;;;;;;;;;;;;;-144.99;72.92;52134.22;5045660;28;19940;-61
2023/06/15 05:38:35;;;;;;;;;;;;;;;-144.99;73.66;52103.66;5042518;28;20127;-61
2023/06/15 05:41:20;;;;;;;;;;;;;;;-144.99;73.17;52069.00;5048696;28;19991;-60
2023/06/15 05:43:46;;;;;;;;;;;;;;;-144.99;72.63;52079.19;5043494;28;19932;-62
2023/06/15 05:46:13;;;;;;;;;;;;;;;-144.99;72.99;52077.16;5045795;28;20055;-61
2023/06/15 05:48:41;;;;;;;;;;;;;;;-144.99;74.00;52093.44;5048299;28;19946;-62
2023/06/15 05:51:07;;;;;;;;;;;;;;;-144.99;72.61;52091.41;5038887;28;19932;-62
2023/06/15 05:53:34;;;;;;;;;;;;;;;-144.99;73.19;52119.94;5045885;28;19946;-60
2023/06/15 05:56:01;;;;;;;;;;;;;;;-144.99;73.89;52085.31;5045510;28;19937;-61
2023/06/15 05:58:28;;;;;;;;;;;;;;;-144.99;73.80;52115.88;5047728;28;20221;-61
2023/06/15 06:00:54;;;;;;;;;;;;;;;-144.99;73.71;52136.25;5049088;28;20028;-61
2023/06/15 06:03:21;;;;;;;;;;;;;;;-144.99;73.50;52117.91;5041492;28;20015;-61
2023/06/15 06:05:49;;;;;;;;;;;;;;;-144.99;73.65;52087.34;5045123;28;19940;-62
2023/06/15 06:08:17;;;;;;;;;;;;;;;-144.99;73.71;52117.91;5038873;28;19951;-61
2023/06/15 06:10:43;;;;;;;;;;;;;;;-144.99;73.67;52089.38;5043841;28;20293;-61
2023/06/15 06:13:10;;;;;;;;;;;;;;;-144.99;73.45;52101.59;5047725;28;19953;-61
2023/06/15 06:15:37;;;;;;;;;;;;;;;-144.99;73.24;52109.75;5045271;28;19951;-62
2023/06/15 06:18:04;;;;;;;;;;;;;;;-144.99;73.22;52093.44;5042206;28;20336;-62
2023/06/15 06:20:32;;;;;;;;;;;;;;;-144.99;73.05;52111.78;5047770;28;19962;-62
2023/06/15 06:23:00;;;;;;;;;;;;;;;-144.99;72.79;52095.50;5045834;28;20439;-64
2023/06/15 06:25:27;;;;;;;;;;;;;;;-144.99;72.84;52060.84;5046036;28;19925;-62
2023/06/15 06:27:53;;;;;;;;;;;;;;;-144.99;72.78;52101.59;5045472;28;20381;-62
2023/06/15 06:30:20;;;;;;;;;;;;;;;-144.99;72.95;52077.16;5047135;28;19966;-60
2023/06/15 06:32:47;;;;;;;;;;;;;;;-144.99;73.02;52048.63;5041878;28;19962;-61
2023/06/15 06:35:13;;;;;;;;;;;;;;;-144.99;72.44;52107.72;5045811;28;19940;-62
2023/06/15 06:37:40;;;;;;;;;;;;;;;-144.99;71.99;52095.50;5045838;28;20377;-62
2023/06/15 06:40:09;;;;;;;;;;;;;;;-144.99;71.21;52075.09;5052830;28;19961;-61
2023/06/15 06:42:36;;;;;;;;;;;;;;;-144.99;70.71;52071.03;5042925;28;20204;-61
2023/06/15 06:45:02;;;;;;;;;;;;;;;-144.99;70.16;52069.00;5044520;28;20301;-62
2023/06/15 06:47:30;;;;;;;;;;;;;;;-144.99;69.27;52058.81;5046020;28;19944;-61
2023/06/15 06:49:59;;;;;;;;;;;;;;;-144.99;67.69;52081.22;5043602;28;19960;-61
2023/06/15 06:52:25;;;;;;;;;;;;;;;-144.99;67.35;52044.53;5048192;28;20067;-62
2023/06/15 06:54:52;;;;;;;;;;;;;;;-144.99;67.07;52046.56;5043172;28;19939;-61
2023/06/15 06:57:20;;;;;;;;;;;;;;;-144.99;67.01;52089.38;5042079;28;19977;-62
2023/06/15 06:59:47;;;;;;;;;;;;;;;-144.99;67.26;52095.50;5043046;28;20004;-61
2023/06/15 07:02:14;;;;;;;;;;;;;;;-144.99;66.93;52056.78;5048803;28;20340;-62
2023/06/15 07:04:40;;;;;;;;;;;;;;;-144.99;67.27;52044.53;5045440;28;20023;-64
2023/06/15 07:07:07;;;;;;;;;;;;;;;-144.99;67.04;52040.47;5046504;28;19945;-64
2023/06/15 07:09:34;;;;;;;;;;;;;;;-144.99;67.07;52007.84;5041872;28;20285;-62
2023/06/15 07:12:01;;;;;;;;;;;;;;;-144.99;67.21;52052.69;5048391;28;19967;-61
2023/06/15 07:14:29;;;;;;;;;;;;;;;-144.99;66.89;52026.19;5040215;28;20459;-60
2023/06/15 07:16:56;;;;;;;;;;;;;;;-144.99;66.77;52040.47;5040741;28;20308;-61
2023/06/15 07:19:23;;;;;;;;;;;;;;;-144.99;66.17;52048.63;5049429;28;20069;-62
2023/06/15 07:21:49;;;;;;;;;;;;;;;-144.99;66.22;52003.78;5049913;28;19954;-62
2023/06/15 07:24:16;;;;;;;;;;;;;;;-144.99;66.16;52048.63;5044568;28;20457;-62
2023/06/15 07:26:42;;;;;;;;;;;;;;;-144.99;66.38;51983.41;5045639;28;19940;-62
2023/06/15 07:29:09;;;;;;;;;;;;;;;-144.99;66.26;52036.38;5042044;28;19924;-61
2023/06/15 07:31:43;;;;;;;;;;;;;;;-144.99;66.11;52003.78;5046540;28;19983;-63
2023/06/15 07:34:09;;;;;;;;;;;;;;;-144.99;65.99;52024.16;5038637;28;20549;-62
2023/06/15 07:36:51;;;;;;;;;;;;;;;-144.99;65.57;51979.31;5041832;28;19954;-61
2023/06/15 07:39:18;;;;;;;;;;;;;;;-144.99;65.00;52016.00;5041529;28;19943;-63
2023/06/15 07:41:44;;;;;;;;;;;;;;;-144.99;65.13;51977.28;5043353;28;20400;-62
2023/06/15 07:44:12;;;;;;;;;;;;;;;-144.99;64.38;52016.00;5041883;28;19924;-62
2023/06/15 07:46:39;;;;;;;;;;;;;;;-144.99;64.13;51997.66;5035118;28;20075;-62
2023/06/15 07:49:07;;;;;;;;;;;;;;;-144.99;64.21;52007.84;5036599;28;19999;-61
2023/06/15 07:51:33;;;;;;;;;;;;;;;-144.99;64.00;52003.78;5040376;28;19924;-62
2023/06/15 07:54:00;;;;;;;;;;;;;;;-144.99;64.00;52018.03;5032791;28;20003;-63
2023/06/15 07:56:26;;;;;;;;;;;;;;;-144.99;63.30;51999.69;5048322;28;19949;-63
2023/06/15 07:58:53;;;;;;;;;;;;;;;-144.99;63.11;51969.13;5037363;28;19960;-63
2023/06/15 08:01:20;;;;;;;;;;;;;;;-144.99;62.60;51979.31;5035852;28;19945;-63
2023/06/15 08:03:46;;;;;;;;;;;;;;;-144.99;62.26;51997.66;5041563;28;19954;-61
2023/06/15 08:06:21;;;;;;;;;;;;;;;-144.99;61.50;51987.47;5040545;28;20389;-62
2023/06/15 08:08:47;;;;;;;;;;;;;;;-144.99;61.14;51993.59;5039204;28;19936;-62
2023/06/15 08:11:18;;;;;;;;;;;;;;;-144.99;61.13;51971.16;5043836;28;20030;-62
2023/06/15 08:13:45;;;;;;;;;;;;;;;-144.99;60.98;52007.84;5030513;28;20527;-63
2023/06/15 08:16:11;;;;;;;;;;;;;;;-144.99;60.98;51954.88;5044226;28;20404;-62
2023/06/15 08:18:38;;;;;;;;;;;;;;;-144.99;60.82;52016.00;5035014;28;19943;-63
2023/06/15 08:21:21;;;;;;;;;;;;;;;-144.99;60.87;51999.69;5046347;28;19942;-62
2023/06/15 08:23:48;;;;;;;;;;;;;;;-144.99;61.13;51958.94;5033082;28;19949;-63
2023/06/15 08:26:14;;;;;;;;;;;;;;;-144.99;61.10;51938.56;5037120;28;19968;-63
2023/06/15 08:28:41;;;;;;;;;;;;;;;-144.99;60.86;51975.25;5033409;28;20103;-62
2023/06/15 08:31:10;;;;;;;;;;;;;;;-144.99;60.66;51938.56;5043527;28;20031;-63
2023/06/15 08:33:38;;;;;;;;;;;;;;;-144.99;60.20;52003.78;5041009;28;19925;-63
2023/06/15 08:36:22;;;;;;;;;;;;;;;-144.99;60.11;51938.56;5038408;28;19944;-62
2023/06/15 08:38:49;;;;;;;;;;;;;;;-144.99;60.32;52018.03;5038768;28;20021;-63
2023/06/15 08:41:16;;;;;;;;;;;;;;;-144.99;59.80;51991.56;5046702;28;19945;-62
2023/06/15 08:43:43;;;;;;;;;;;;;;;-144.99;59.79;51997.66;5031403;28;19937;-63
2023/06/15 08:46:10;;;;;;;;;;;;;;;-144.99;59.15;51983.41;5034637;28;19952;-63
2023/06/15 08:48:38;;;;;;;;;;;;;;;-144.99;59.07;51981.38;5035491;28;19991;-63
2023/06/15 08:51:22;;;;;;;;;;;;;;;-144.99;59.26;51983.41;5038869;28;19947;-64
2023/06/15 08:53:49;;;;;;;;;;;;;;;-144.99;58.98;51983.41;5034001;28;20244;-62
2023/06/15 08:56:16;;;;;;;;;;;;;;;-144.99;59.04;51954.88;5046310;28;19943;-63
2023/06/15 08:58:49;;;;;;;;;;;;;;;-144.99;58.81;51967.09;5029133;28;20309;-63
2023/06/15 09:01:18;;;;;;;;;;;;;;;-144.99;58.70;51965.06;5047933;28;19940;-62
2023/06/15 09:03:45;;;;;;;;;;;;;;;-144.99;58.72;51991.56;5038165;28;19976;-62
2023/06/15 09:06:23;;;;;;;;;;;;;;;-144.99;59.22;51987.47;5038964;28;19936;-64
2023/06/15 09:08:51;;;;;;;;;;;;;;;-144.99;59.08;51983.41;5032442;28;19941;-63
2023/06/15 09:11:18;;;;;;;;;;;;;;;-144.99;58.95;52022.13;5044176;28;19944;-63
2023/06/15 09:13:45;;;;;;;;;;;;;;;-144.99;58.93;51991.56;5035542;28;20408;-62
2023/06/15 09:16:11;;;;;;;;;;;;;;;-144.99;59.16;52020.09;5041628;28;20395;-63
2023/06/15 09:18:45;;;;;;;;;;;;;;;-144.99;59.65;52007.84;5041084;28;20396;-62
2023/06/15 09:21:22;;;;;;;;;;;;;;;-144.99;59.69;52003.78;5047044;28;19935;-62
2023/06/15 09:23:48;;;;;;;;;;;;;;;-144.99;59.68;52016.00;5041099;28;19947;-63
2023/06/15 09:26:22;;;;;;;;;;;;;;;-144.99;59.83;51993.59;5046299;28;19941;-62
2023/06/15 09:28:48;;;;;;;;;;;;;;;-144.99;59.58;51991.56;5042577;28;19969;-63
2023/06/15 09:31:45;;;;;;;;;;;;;;;-144.99;59.42;52011.94;5043127;28;19943;-62
2023/06/15 09:34:13;;;;;;;;;;;;;;;-144.99;59.62;51985.44;5044374;28;20038;-64
2023/06/15 09:36:44;;;;;;;;;;;;;;;-144.99;59.54;51993.59;5045056;28;19925;-63
2023/06/15 09:39:11;;;;;;;;;;;;;;;-144.99;59.47;51969.13;5041845;28;19956;-65
2023/06/15 09:41:53;;;;;;;;;;;;;;;-144.99;59.24;51987.47;5044053;28;20014;-63
2023/06/15 09:44:21;;;;;;;;;;;;;;;-144.99;59.38;51946.72;5044911;28;19940;-62
2023/06/15 09:46:49;;;;;;;;;;;;;;;-144.99;59.42;51979.31;5038577;28;19994;-63
2023/06/15 09:49:20;;;;;;;;;;;;;;;-144.99;58.92;51987.47;5041884;28;19966;-63
2023/06/15 09:51:49;;;;;;;;;;;;;;;-144.99;58.83;51946.72;5044891;28;20455;-64
2023/06/15 09:54:17;;;;;;;;;;;;;;;-144.99;58.88;51954.88;5038531;28;20045;-63
2023/06/15 09:56:47;;;;;;;;;;;;;;;-144.99;58.64;51942.63;5036124;28;19940;-63
2023/06/15 09:59:14;;;;;;;;;;;;;;;-144.99;58.77;51963.03;5033756;28;20037;-63
2023/06/15 10:01:42;;;;;;;;;;;;;;;-144.99;58.04;51950.78;5040303;28;19925;-63
2023/06/15 10:04:10;;;;;;;;;;;;;;;-144.99;56.68;51908.00;5042455;28;19935;-62
2023/06/15 10:06:39;;;;;;;;;;;;;;;-144.99;56.64;51914.09;5047442;28;19941;-64
2023/06/15 10:09:11;;;;;;;;;;;;;;;-144.99;56.06;51905.97;5041584;28;20495;-63
2023/06/15 10:11:40;;;;;;;;;;;;;;;-144.99;56.07;51928.38;5045793;28;20423;-65
2023/06/15 10:14:10;;;;;;;;;;;;;;;-144.99;54.81;51897.81;5040438;28;19951;-64
2023/06/15 10:16:41;;;;;;;;;;;;;;;-144.99;54.98;51910.03;5046768;28;19949;-64
2023/06/15 10:19:10;;;;;;;;;;;;;;;-144.99;55.57;51908.00;5046247;28;19976;-64
2023/06/15 10:21:49;;;;;;;;;;;;;;;-144.99;55.84;51934.50;5039295;28;20482;-63
2023/06/15 10:24:20;;;;;;;;;;;;;;;-144.99;55.57;51940.59;5042286;28;20403;-64
2023/06/15 10:26:47;;;;;;;;;;;;;;;-144.99;56.05;51914.09;5061246;22;20003;-61
2023/06/15 10:29:17;;;;;;;;;;;;;;;-144.99;55.84;51950.78;5064783;28;19968;-61
2023/06/15 10:31:46;;;;;;;;;;;;;;;-144.99;56.31;51983.41;5048360;28;19954;-61
2023/06/15 10:34:18;;;;;;;;;;;;;;;-144.99;56.64;51930.41;5058528;28;19979;-63
2023/06/15 10:36:50;;;;;;;;;;;;;;;-144.99;57.04;51946.72;5055509;28;19942;-61
2023/06/15 10:39:22;;;;;;;;;;;;;;;-144.99;57.33;51979.31;5050221;28;20006;-61
2023/06/15 10:41:52;;;;;;;;;;;;;;;-144.99;57.82;51950.78;5055828;28;19938;-61
2023/06/15 10:44:19;;;;;;;;;;;;;;;-144.99;57.76;51967.09;5053480;28;19932;-61
2023/06/15 10:46:45;;;;;;;;;;;;;;;-144.99;58.28;51975.25;5060597;28;19953;-62
2023/06/15 10:49:12;;;;;;;;;;;;;;;-144.99;58.52;51977.28;5051384;28;19996;-62
2023/06/15 10:51:40;;;;;;;;;;;;;;;-144.99;58.79;52016.00;5052433;28;20067;-62
2023/06/15 10:54:21;;;;;;;;;;;;;;;-144.99;58.60;51967.09;5047530;28;19972;-62
2023/06/15 10:56:51;;;;;;;;;;;;;;;-144.99;58.72;51973.22;5054227;28;20402;-61
2023/06/15 10:59:37;;;;;;;;;;;;;;;-144.99;58.90;51958.94;5053286;28;20455;-61
2023/06/15 11:02:03;;;;;;;;;;;;;;;-144.99;58.64;51973.22;5048475;28;19996;-62
2023/06/15 11:04:31;;;;;;;;;;;;;;;-144.99;58.58;51934.50;5050648;28;19944;-62
2023/06/15 11:06:58;;;;;;;;;;;;;;;-144.99;58.40;51965.06;5059403;28;19953;-61
2023/06/15 11:09:31;;;;;;;;;;;;;;;-144.99;58.34;51942.63;5055727;28;19966;-62
2023/06/15 11:12:00;;;;;;;;;;;;;;;-144.99;58.39;51926.34;5054767;28;19949;-60
2023/06/15 11:14:27;;;;;;;;;;;;;;;-144.99;58.70;51879.47;5052220;28;19985;-62
2023/06/15 11:17:03;;;;;;;;;;;;;;;-144.99;58.38;51834.63;5057926;28;20431;-61
2023/06/15 11:19:30;;;;;;;;;;;;;;;-144.99;58.25;51844.81;5051839;28;19924;-60
2023/06/15 11:22:01;;;;;;;;;;;;;;;-144.99;58.11;51895.75;5049401;28;20027;-61
2023/06/15 11:24:29;;;;;;;;;;;;;;;-144.99;57.90;51877.44;5049271;28;20444;-62
2023/06/15 11:26:56;;;;;;;;;;;;;;;-144.99;57.78;51930.41;5053138;28;20000;-60
2023/06/15 11:29:25;;;;;;;;;;;;;;;-144.99;58.06;51885.56;5048765;28;19952;-60
2023/06/15 11:31:52;;;;;;;;;;;;;;;-144.99;58.20;51926.34;5055060;28;20043;-61
2023/06/15 11:34:19;;;;;;;;;;;;;;;-144.99;58.30;51914.09;5052764;28;19970;-61
2023/06/15 11:36:46;;;;;;;;;;;;;;;-144.99;58.34;51905.97;5052203;28;19967;-61
2023/06/15 11:39:19;;;;;;;;;;;;;;;-144.99;58.52;51938.56;5049460;28;20538;-61
2023/06/15 11:41:47;;;;;;;;;;;;;;;-144.99;58.54;51954.88;5052470;28;19941;-61
2023/06/15 11:44:14;;;;;;;;;;;;;;;-144.99;58.40;51963.03;5049723;28;19942;-62
2023/06/15 11:46:42;;;;;;;;;;;;;;;-144.99;58.43;51954.88;5052822;28;20426;-61
2023/06/15 11:49:11;;;;;;;;;;;;;;;-144.99;58.79;51958.94;5051953;28;19962;-61
2023/06/15 11:51:52;;;;;;;;;;;;;;;-144.99;59.16;51958.94;5047109;28;19942;-61
2023/06/15 11:54:23;;;;;;;;;;;;;;;-144.99;59.15;51938.56;5053236;28;19959;-60
2023/06/15 11:56:50;;;;;;;;;;;;;;;-144.99;59.23;51981.38;5060373;28;19947;-62
2023/06/15 11:59:17;;;;;;;;;;;;;;;-144.99;59.11;51934.50;5044052;28;20017;-62
2023/06/15 12:01:45;;;;;;;;;;;;;;;-144.99;58.74;51946.72;5046921;28;19946;-62
2023/06/15 12:04:13;;;;;;;;;;;;;;;-144.99;58.07;51950.78;5046758;28;20070;-60
2023/06/15 12:06:40;;;;;;;;;;;;;;;-144.99;58.47;51918.19;5058097;28;20411;-62
2023/06/15 12:09:08;;;;;;;;;;;;;;;-144.99;58.34;51901.88;5054866;28;19986;-61
2023/06/15 12:11:47;;;;;;;;;;;;;;;-144.99;57.89;51930.41;5050057;28;19949;-61
2023/06/15 12:14:16;;;;;;;;;;;;;;;-144.99;57.38;51914.09;5052525;28;19956;-61
2023/06/15 12:16:48;;;;;;;;;;;;;;;-144.99;57.26;51885.56;5052817;28;19966;-62
2023/06/15 12:19:17;;;;;;;;;;;;;;;-144.99;56.83;51946.72;5048157;28;19955;-62
2023/06/15 12:21:44;;;;;;;;;;;;;;;-144.99;56.86;51903.91;5055091;28;19944;-61
2023/06/15 12:24:14;;;;;;;;;;;;;;;-144.99;57.37;51875.38;5047116;28;19943;-60
2023/06/15 12:26:41;;;;;;;;;;;;;;;-144.99;57.63;51946.72;5057773;28;20335;-62
2023/06/15 12:29:14;;;;;;;;;;;;;;;-144.99;57.37;51885.56;5050259;28;19960;-60
2023/06/15 12:31:41;;;;;;;;;;;;;;;-144.99;56.93;51903.91;5047735;28;19940;-61
2023/06/15 12:34:08;;;;;;;;;;;;;;;-144.99;56.92;51956.91;5050233;28;20093;-62
2023/06/15 12:36:37;;;;;;;;;;;;;;;-144.99;56.81;51958.94;5053647;28;20351;-61